Time;durP1;ratioP1;P1;durP2;ratioP2;P2;SDS_P1;SDS_P2;PMS_P1;PMS_P2;Temp;Humidity;BMP_temperature;BMP_pressure;BME280_temperature;BME280_humidity;BME280_pressure;Samples;Min_cycle;Max_cycle;Signal;HPM_P1;HPM_P2
2022/11/16 00:00:00;;;;;;;8.67;7.07;;;;;;;;;;510333;28;1160;-59
2022/11/16 00:00:16;;;;;;;8.10;7.00;;;;;;;;;;509618;28;1466;-59
2022/11/16 00:00:32;;;;;;;9.07;6.97;;;;;;;;;;510880;28;1056;-59
2022/11/16 00:00:47;;;;;;;9.13;7.00;;;;;;;;;;510220;28;1164;-59
2022/11/16 00:01:09;;;;;;;9.00;7.13;;;;;;;;;;511446;28;1175;-59
2022/11/16 00:01:27;;;;;;;8.93;7.18;;;;;;;;;;509644;28;1270;-59
2022/11/16 00:01:42;;;;;;;9.93;7.22;;;;;;;;;;510025;28;1523;-59
2022/11/16 00:01:57;;;;;;;9.73;7.00;;;;;;;;;;509750;28;1191;-59
2022/11/16 00:02:13;;;;;;;8.70;6.65;;;;;;;;;;509077;28;1218;-60
2022/11/16 00:02:28;;;;;;;9.87;7.00;;;;;;;;;;511403;28;1701;-60
2022/11/16 00:02:44;;;;;;;9.55;7.10;;;;;;;;;;510827;28;1199;-59
2022/11/16 00:03:03;;;;;;;8.73;6.97;;;;;;;;;;509984;28;1324;-60
2022/11/16 00:03:18;;;;;;;9.10;6.95;;;;;;;;;;509913;28;1191;-59
2022/11/16 00:03:34;;;;;;;9.60;7.28;;;;;;;;;;506964;29;1733;-59
2022/11/16 00:03:52;;;;;;;8.95;7.35;;;;;;;;;;507450;29;1053;-59
2022/11/16 00:04:10;;;;;;;8.60;7.25;;;;;;;;;;507127;29;1138;-60
2022/11/16 00:04:25;;;;;;;8.88;7.13;;;;;;;;;;510691;28;1871;-60
2022/11/16 00:04:41;;;;;;;9.68;7.28;;;;;;;;;;511270;28;1209;-59
2022/11/16 00:04:56;;;;;;;9.63;7.40;;;;;;;;;;509255;28;1136;-59
2022/11/16 00:05:12;;;;;;;9.13;7.30;;;;;;;;;;507444;29;1628;-59
2022/11/16 00:05:27;;;;;;;9.07;7.30;;;;;;;;;;507181;29;1014;-59
2022/11/16 00:05:42;;;;;;;8.70;7.30;;;;;;;;;;507219;29;1005;-59
2022/11/16 00:06:00;;;;;;;8.63;7.05;;;;;;;;;;507833;29;1153;-59
2022/11/16 00:06:16;;;;;;;9.27;6.90;;;;;;;;;;506777;29;1186;-60
2022/11/16 00:06:32;;;;;;;9.82;6.90;;;;;;;;;;506625;29;1212;-59
2022/11/16 00:06:50;;;;;;;9.67;6.77;;;;;;;;;;507532;29;1190;-60
2022/11/16 00:07:06;;;;;;;8.43;6.75;;;;;;;;;;508535;28;1269;-60
2022/11/16 00:07:21;;;;;;;8.55;6.70;;;;;;;;;;507897;28;1357;-59
2022/11/16 00:07:36;;;;;;;8.53;6.80;;;;;;;;;;509601;29;1195;-59
2022/11/16 00:07:51;;;;;;;9.35;6.72;;;;;;;;;;508061;28;1032;-59
2022/11/16 00:08:07;;;;;;;9.07;6.37;;;;;;;;;;508949;28;1214;-59
2022/11/16 00:08:22;;;;;;;7.73;6.30;;;;;;;;;;510105;28;1155;-59
2022/11/16 00:09:20;;;;;;;7.60;6.53;;;;;;;;;;511472;28;1116;-60
2022/11/16 00:09:25;;;;;;;8.38;6.70;;;;;;;;;;512444;28;1013;-60
2022/11/16 00:09:41;;;;;;;7.03;5.97;;;;;;;;;;511936;28;1202;-59
2022/11/16 00:09:56;;;;;;;7.53;6.30;;;;;;;;;;510470;28;1328;-59
2022/11/16 00:10:11;;;;;;;7.70;6.50;;;;;;;;;;510011;28;1463;-60
2022/11/16 00:10:26;;;;;;;8.15;6.22;;;;;;;;;;511674;28;1211;-59
2022/11/16 00:10:42;;;;;;;8.53;6.10;;;;;;;;;;509394;28;1110;-59
2022/11/16 00:11:09;;;;;;;8.70;6.13;;;;;;;;;;507841;29;1228;-59
2022/11/16 00:11:24;;;;;;;8.65;6.20;;;;;;;;;;508968;29;1099;-59
2022/11/16 00:11:40;;;;;;;8.93;6.20;;;;;;;;;;508242;29;1140;-60
2022/11/16 00:11:58;;;;;;;8.30;6.10;;;;;;;;;;510537;28;1230;-60
2022/11/16 00:12:13;;;;;;;7.68;6.07;;;;;;;;;;510471;28;1234;-59
2022/11/16 00:12:28;;;;;;;7.75;6.13;;;;;;;;;;509869;28;1911;-60
2022/11/16 00:12:43;;;;;;;8.03;6.37;;;;;;;;;;512606;28;1061;-60
2022/11/16 00:12:59;;;;;;;8.53;6.43;;;;;;;;;;514913;28;1174;-59
2022/11/16 00:13:14;;;;;;;8.53;6.47;;;;;;;;;;511648;28;1213;-59
2022/11/16 00:13:31;;;;;;;8.05;6.60;;;;;;;;;;512115;28;1258;-59
2022/11/16 00:13:47;;;;;;;8.43;6.00;;;;;;;;;;510586;28;1081;-59
2022/11/16 00:14:03;;;;;;;7.77;5.93;;;;;;;;;;511014;28;1030;-59
2022/11/16 00:14:21;;;;;;;7.97;6.30;;;;;;;;;;510411;28;1459;-59
2022/11/16 00:14:36;;;;;;;8.07;6.20;;;;;;;;;;510553;28;1413;-60
2022/11/16 00:14:51;;;;;;;8.03;5.83;;;;;;;;;;511119;28;1136;-60
2022/11/16 00:15:07;;;;;;;8.63;6.27;;;;;;;;;;511826;28;1475;-59
2022/11/16 00:15:22;;;;;;;8.50;6.68;;;;;;;;;;512925;28;1150;-60
2022/11/16 00:15:38;;;;;;;8.63;6.70;;;;;;;;;;512651;28;1021;-60
2022/11/16 00:15:57;;;;;;;8.03;6.43;;;;;;;;;;509958;28;1479;-59
2022/11/16 00:16:15;;;;;;;8.60;6.75;;;;;;;;;;511450;28;1069;-59
2022/11/16 00:16:30;;;;;;;11.18;7.20;;;;;;;;;;508984;28;1297;-59
2022/11/16 00:16:45;;;;;;;9.53;6.80;;;;;;;;;;507787;28;1707;-60
2022/11/16 00:17:02;;;;;;;8.67;7.10;;;;;;;;;;509594;28;1035;-59
2022/11/16 00:17:17;;;;;;;8.25;7.05;;;;;;;;;;507355;29;1457;-59
2022/11/16 00:17:32;;;;;;;7.73;6.60;;;;;;;;;;506070;29;1269;-60
2022/11/16 00:17:48;;;;;;;8.60;6.67;;;;;;;;;;508606;29;1205;-59
2022/11/16 00:18:03;;;;;;;10.05;6.80;;;;;;;;;;507142;29;1227;-60
2022/11/16 00:18:18;;;;;;;8.53;6.40;;;;;;;;;;510035;28;1592;-59
2022/11/16 00:18:34;;;;;;;8.27;6.20;;;;;;;;;;508912;29;1061;-60
2022/11/16 00:18:55;;;;;;;8.60;6.05;;;;;;;;;;508374;29;1210;-59
2022/11/16 00:19:11;;;;;;;9.57;6.20;;;;;;;;;;508996;28;1292;-59
2022/11/16 00:19:27;;;;;;;9.27;6.40;;;;;;;;;;507466;29;1424;-59
2022/11/16 00:19:42;;;;;;;7.97;6.20;;;;;;;;;;509305;29;1156;-59
2022/11/16 00:19:57;;;;;;;8.13;6.13;;;;;;;;;;509310;28;1164;-59
2022/11/16 00:20:13;;;;;;;8.80;6.00;;;;;;;;;;509976;28;1226;-59
2022/11/16 00:20:28;;;;;;;9.52;6.03;;;;;;;;;;507788;29;1077;-59
2022/11/16 00:20:44;;;;;;;8.20;6.00;;;;;;;;;;510460;28;989;-60
2022/11/16 00:21:02;;;;;;;7.95;6.10;;;;;;;;;;511073;28;1111;-59
2022/11/16 00:21:17;;;;;;;8.32;6.05;;;;;;;;;;510854;28;1104;-60
2022/11/16 00:21:33;;;;;;;7.73;5.90;;;;;;;;;;512592;28;989;-60
2022/11/16 00:21:49;;;;;;;7.30;5.93;;;;;;;;;;511714;28;1140;-59
2022/11/16 00:22:04;;;;;;;7.68;5.97;;;;;;;;;;512482;28;965;-59
2022/11/16 00:22:20;;;;;;;8.00;5.95;;;;;;;;;;510366;28;1187;-59
2022/11/16 00:22:35;;;;;;;7.20;5.70;;;;;;;;;;511751;28;1059;-60
2022/11/16 00:22:50;;;;;;;8.27;5.80;;;;;;;;;;513512;28;1409;-60
2022/11/16 00:23:05;;;;;;;8.63;5.70;;;;;;;;;;511086;28;1320;-59
2022/11/16 00:23:21;;;;;;;7.72;5.53;;;;;;;;;;511224;28;1041;-59
2022/11/16 00:23:37;;;;;;;7.90;5.90;;;;;;;;;;511614;28;1107;-59
2022/11/16 00:23:53;;;;;;;7.25;5.88;;;;;;;;;;509744;28;1611;-59
2022/11/16 00:24:13;;;;;;;6.43;5.47;;;;;;;;;;511141;28;1236;-60
2022/11/16 00:24:28;;;;;;;6.93;5.53;;;;;;;;;;509723;28;1131;-59
2022/11/16 00:24:43;;;;;;;7.60;5.60;;;;;;;;;;510981;28;1102;-59
2022/11/16 00:24:58;;;;;;;7.10;5.50;;;;;;;;;;511945;28;1187;-59
2022/11/16 00:25:14;;;;;;;6.53;5.50;;;;;;;;;;510854;28;1155;-59
2022/11/16 00:25:29;;;;;;;6.33;5.60;;;;;;;;;;510289;28;1485;-59
2022/11/16 00:25:45;;;;;;;7.30;5.80;;;;;;;;;;508007;28;1102;-59
2022/11/16 00:26:08;;;;;;;7.82;6.10;;;;;;;;;;508743;28;1196;-60
2022/11/16 00:26:24;;;;;;;7.13;5.97;;;;;;;;;;510311;28;1112;-60
2022/11/16 00:26:40;;;;;;;7.10;6.00;;;;;;;;;;510421;28;1194;-59
2022/11/16 00:26:55;;;;;;;8.07;6.00;;;;;;;;;;512464;28;1136;-59
2022/11/16 00:27:10;;;;;;;8.03;6.00;;;;;;;;;;511935;28;1127;-59
2022/11/16 00:27:25;;;;;;;6.60;5.80;;;;;;;;;;510606;28;1168;-59
2022/11/16 00:27:41;;;;;;;6.97;5.88;;;;;;;;;;509276;28;1305;-59
2022/11/16 00:27:56;;;;;;;7.63;5.90;;;;;;;;;;505884;29;1273;-59
2022/11/16 00:28:11;;;;;;;7.77;6.03;;;;;;;;;;508084;29;1133;-59
2022/11/16 00:28:27;;;;;;;7.32;6.15;;;;;;;;;;508379;29;1233;-59
2022/11/16 00:28:42;;;;;;;8.07;6.10;;;;;;;;;;509240;28;1122;-60
2022/11/16 00:28:58;;;;;;;8.75;6.10;;;;;;;;;;510737;28;1194;-59
2022/11/16 00:29:19;;;;;;;8.17;6.20;;;;;;;;;;507578;28;1178;-59
2022/11/16 00:29:34;;;;;;;7.85;6.30;;;;;;;;;;509632;28;1133;-59
2022/11/16 00:29:49;;;;;;;6.93;6.22;;;;;;;;;;510947;28;1147;-60
2022/11/16 00:30:05;;;;;;;7.50;6.20;;;;;;;;;;512356;28;1208;-60
2022/11/16 00:30:20;;;;;;;8.45;6.32;;;;;;;;;;512262;28;1445;-60
2022/11/16 00:30:36;;;;;;;8.33;6.27;;;;;;;;;;512912;28;1191;-59
2022/11/16 00:31:02;;;;;;;7.53;5.80;;;;;;;;;;513262;28;1167;-59
2022/11/16 00:31:18;;;;;;;6.82;5.90;;;;;;;;;;513295;28;1186;-60
2022/11/16 00:31:33;;;;;;;7.03;5.70;;;;;;;;;;511856;28;1147;-62
2022/11/16 00:31:49;;;;;;;7.00;5.67;;;;;;;;;;511672;28;1075;-60
2022/11/16 00:32:04;;;;;;;6.88;5.50;;;;;;;;;;512865;28;1342;-59
2022/11/16 00:32:19;;;;;;;7.53;5.70;;;;;;;;;;513600;28;1004;-59
2022/11/16 00:32:35;;;;;;;7.47;5.87;;;;;;;;;;513272;28;1934;-59
2022/11/16 00:32:50;;;;;;;7.80;5.70;;;;;;;;;;510242;28;1180;-59
2022/11/16 00:33:07;;;;;;;8.30;5.70;;;;;;;;;;508999;28;1063;-60
2022/11/16 00:33:22;;;;;;;7.05;5.88;;;;;;;;;;511268;28;1210;-60
2022/11/16 00:33:38;;;;;;;7.35;6.03;;;;;;;;;;510426;28;1206;-59
2022/11/16 00:33:53;;;;;;;7.95;6.40;;;;;;;;;;511206;28;1080;-59
2022/11/16 00:34:09;;;;;;;6.90;6.13;;;;;;;;;;508608;28;1192;-59
2022/11/16 00:34:24;;;;;;;6.90;6.00;;;;;;;;;;511330;28;1651;-59
2022/11/16 00:34:39;;;;;;;7.07;6.05;;;;;;;;;;513459;28;1268;-59
2022/11/16 00:34:55;;;;;;;7.10;5.83;;;;;;;;;;515170;28;1206;-60
2022/11/16 00:35:10;;;;;;;8.07;5.90;;;;;;;;;;513617;28;1080;-59
2022/11/16 00:35:25;;;;;;;7.55;5.78;;;;;;;;;;513806;28;1166;-60
2022/11/16 00:35:41;;;;;;;6.67;5.50;;;;;;;;;;515299;28;1096;-60
2022/11/16 00:35:57;;;;;;;6.67;5.53;;;;;;;;;;515180;28;1088;-59
2022/11/16 00:36:12;;;;;;;7.57;5.50;;;;;;;;;;513654;28;1010;-59
2022/11/16 00:36:28;;;;;;;7.72;5.40;;;;;;;;;;513861;28;1119;-59
2022/11/16 00:36:43;;;;;;;7.60;5.50;;;;;;;;;;513726;28;1076;-59
2022/11/16 00:36:58;;;;;;;7.43;5.50;;;;;;;;;;515761;28;1071;-60
2022/11/16 00:37:13;;;;;;;7.07;5.17;;;;;;;;;;512052;28;1088;-59
2022/11/16 00:37:29;;;;;;;6.80;5.00;;;;;;;;;;512980;28;1131;-59
2022/11/16 00:37:44;;;;;;;6.03;5.10;;;;;;;;;;512187;28;1499;-59
2022/11/16 00:37:59;;;;;;;6.00;5.20;;;;;;;;;;512053;28;1199;-60
2022/11/16 00:38:14;;;;;;;7.50;5.10;;;;;;;;;;513072;28;1058;-59
2022/11/16 00:38:30;;;;;;;7.87;5.20;;;;;;;;;;513369;28;1028;-60
2022/11/16 00:38:45;;;;;;;6.95;5.30;;;;;;;;;;511755;28;1131;-60
2022/11/16 00:39:00;;;;;;;8.10;5.33;;;;;;;;;;513508;28;1174;-59
2022/11/16 00:39:17;;;;;;;7.90;5.30;;;;;;;;;;515003;28;1156;-61
2022/11/16 00:39:33;;;;;;;7.00;5.38;;;;;;;;;;514572;28;1051;-59
2022/11/16 00:39:48;;;;;;;7.45;5.53;;;;;;;;;;514392;28;1123;-60
2022/11/16 00:40:04;;;;;;;7.20;5.50;;;;;;;;;;514975;28;1317;-60
2022/11/16 00:40:19;;;;;;;6.43;5.60;;;;;;;;;;515389;28;1158;-59
2022/11/16 00:40:35;;;;;;;6.77;5.60;;;;;;;;;;514185;28;1083;-60
2022/11/16 00:40:50;;;;;;;7.22;5.55;;;;;;;;;;514630;28;1000;-59
2022/11/16 00:41:06;;;;;;;7.20;5.80;;;;;;;;;;511508;28;1424;-60
2022/11/16 00:41:22;;;;;;;6.72;5.82;;;;;;;;;;511265;28;1228;-60
2022/11/16 00:41:37;;;;;;;7.00;5.75;;;;;;;;;;511749;28;2044;-59
2022/11/16 00:41:53;;;;;;;7.83;5.80;;;;;;;;;;512060;28;1063;-60
2022/11/16 00:42:08;;;;;;;8.02;5.80;;;;;;;;;;512881;28;1070;-59
2022/11/16 00:42:23;;;;;;;7.53;5.70;;;;;;;;;;510982;28;1442;-59
2022/11/16 00:42:38;;;;;;;6.83;5.50;;;;;;;;;;511389;28;1076;-59
2022/11/16 00:42:54;;;;;;;6.87;5.53;;;;;;;;;;511096;28;1123;-59
2022/11/16 00:43:09;;;;;;;6.93;5.40;;;;;;;;;;511724;28;1306;-59
2022/11/16 00:43:25;;;;;;;7.20;5.40;;;;;;;;;;511975;28;1343;-59
2022/11/16 00:43:40;;;;;;;7.90;5.60;;;;;;;;;;513273;28;1077;-59
2022/11/16 00:43:55;;;;;;;7.47;5.33;;;;;;;;;;512918;28;1193;-59
2022/11/16 00:44:11;;;;;;;7.67;5.30;;;;;;;;;;513299;28;1117;-59
2022/11/16 00:44:26;;;;;;;7.82;5.10;;;;;;;;;;511614;28;1342;-59
2022/11/16 00:44:41;;;;;;;6.53;4.73;;;;;;;;;;511888;28;1361;-59
2022/11/16 00:44:56;;;;;;;5.93;4.83;;;;;;;;;;511062;28;1213;-59
2022/11/16 00:45:12;;;;;;;6.77;4.90;;;;;;;;;;511006;28;1156;-59
2022/11/16 00:45:27;;;;;;;6.85;4.78;;;;;;;;;;511431;28;1084;-59
2022/11/16 00:45:43;;;;;;;6.27;4.73;;;;;;;;;;510745;28;1012;-59
2022/11/16 00:45:58;;;;;;;5.70;4.65;;;;;;;;;;508902;28;1484;-59
2022/11/16 00:46:13;;;;;;;5.47;4.60;;;;;;;;;;511257;28;1334;-59
2022/11/16 00:46:28;;;;;;;5.60;4.67;;;;;;;;;;513583;28;1166;-59
2022/11/16 00:46:44;;;;;;;5.03;4.53;;;;;;;;;;511876;28;1187;-60
2022/11/16 00:46:59;;;;;;;4.97;4.33;;;;;;;;;;512748;28;1231;-59
2022/11/16 00:47:15;;;;;;;6.93;4.60;;;;;;;;;;509432;28;2081;-60
2022/11/16 00:47:30;;;;;;;7.43;5.00;;;;;;;;;;513198;28;1006;-59
2022/11/16 00:47:45;;;;;;;7.10;5.10;;;;;;;;;;512668;28;1083;-59
2022/11/16 00:48:01;;;;;;;7.50;5.20;;;;;;;;;;511401;28;1441;-59
2022/11/16 00:48:16;;;;;;;8.48;5.30;;;;;;;;;;512792;28;1222;-59
2022/11/16 00:48:31;;;;;;;8.00;5.30;;;;;;;;;;513239;28;1173;-59
2022/11/16 00:48:46;;;;;;;8.67;5.20;;;;;;;;;;511880;28;1270;-59
2022/11/16 00:49:04;;;;;;;8.23;5.20;;;;;;;;;;514273;28;1430;-59
2022/11/16 00:49:19;;;;;;;6.93;4.90;;;;;;;;;;512657;28;1327;-59
2022/11/16 00:49:34;;;;;;;7.80;4.50;;;;;;;;;;513131;28;1598;-59
2022/11/16 00:49:50;;;;;;;7.03;4.60;;;;;;;;;;511776;28;1398;-59
2022/11/16 00:50:05;;;;;;;6.33;4.70;;;;;;;;;;511775;28;1147;-59
2022/11/16 00:50:20;;;;;;;5.90;4.50;;;;;;;;;;512565;28;1309;-59
2022/11/16 00:50:36;;;;;;;5.43;4.35;;;;;;;;;;513219;28;1092;-59
2022/11/16 00:50:52;;;;;;;6.33;4.50;;;;;;;;;;512968;28;1115;-59
2022/11/16 00:51:07;;;;;;;6.30;4.45;;;;;;;;;;511498;28;1160;-58
2022/11/16 00:51:22;;;;;;;5.43;4.23;;;;;;;;;;510887;28;1105;-59
2022/11/16 00:51:37;;;;;;;6.43;4.30;;;;;;;;;;510905;28;1188;-59
2022/11/16 00:51:53;;;;;;;7.13;4.40;;;;;;;;;;511142;28;1241;-59
2022/11/16 00:52:08;;;;;;;5.73;4.40;;;;;;;;;;511679;28;1525;-59
2022/11/16 00:52:23;;;;;;;5.60;4.20;;;;;;;;;;509356;28;1025;-59
2022/11/16 00:52:38;;;;;;;5.72;4.13;;;;;;;;;;509520;28;1974;-59
2022/11/16 00:52:54;;;;;;;5.80;4.30;;;;;;;;;;511376;28;1144;-59
2022/11/16 00:53:12;;;;;;;5.90;4.30;;;;;;;;;;511470;28;1171;-59
2022/11/16 00:53:27;;;;;;;4.97;4.07;;;;;;;;;;511153;28;1306;-59
2022/11/16 00:53:42;;;;;;;5.78;4.20;;;;;;;;;;512628;28;993;-59
2022/11/16 00:53:58;;;;;;;5.90;4.33;;;;;;;;;;513334;28;1295;-60
2022/11/16 00:54:13;;;;;;;5.80;4.40;;;;;;;;;;513120;28;1377;-59
2022/11/16 00:54:28;;;;;;;6.53;4.50;;;;;;;;;;513319;28;1147;-59
2022/11/16 00:54:44;;;;;;;6.18;4.40;;;;;;;;;;513432;28;1047;-59
2022/11/16 00:54:59;;;;;;;6.73;4.40;;;;;;;;;;509876;28;1196;-59
2022/11/16 00:55:14;;;;;;;6.50;4.40;;;;;;;;;;510694;28;1381;-59
2022/11/16 00:55:30;;;;;;;5.30;4.20;;;;;;;;;;510927;28;1103;-59
2022/11/16 00:55:46;;;;;;;6.53;4.20;;;;;;;;;;509833;28;1207;-60
2022/11/16 00:56:02;;;;;;;7.37;4.47;;;;;;;;;;513620;28;1290;-59
2022/11/16 00:56:17;;;;;;;6.17;4.57;;;;;;;;;;511459;28;1008;-59
2022/11/16 00:56:33;;;;;;;7.25;4.60;;;;;;;;;;513019;28;1131;-59
2022/11/16 00:56:48;;;;;;;6.90;4.73;;;;;;;;;;509875;28;1170;-59
2022/11/16 00:57:03;;;;;;;5.17;4.60;;;;;;;;;;512913;28;1151;-59
2022/11/16 00:57:19;;;;;;;5.67;4.57;;;;;;;;;;510704;28;1214;-59
2022/11/16 00:57:35;;;;;;;7.40;4.90;;;;;;;;;;510027;28;1488;-59
2022/11/16 00:57:50;;;;;;;7.47;5.00;;;;;;;;;;510130;28;1310;-59
2022/11/16 00:58:06;;;;;;;6.13;4.70;;;;;;;;;;511066;28;1179;-59
2022/11/16 00:58:21;;;;;;;5.73;4.60;;;;;;;;;;508874;29;1172;-59
2022/11/16 00:58:37;;;;;;;5.43;4.60;;;;;;;;;;508036;28;1136;-60
2022/11/16 00:58:52;;;;;;;5.60;4.50;;;;;;;;;;509251;29;1159;-60
2022/11/16 00:59:07;;;;;;;5.68;4.50;;;;;;;;;;508262;28;1259;-59
2022/11/16 00:59:23;;;;;;;5.77;4.50;;;;;;;;;;511554;28;1246;-60
2022/11/16 00:59:38;;;;;;;6.37;4.80;;;;;;;;;;513474;28;1209;-60
2022/11/16 00:59:53;;;;;;;6.33;4.90;;;;;;;;;;513123;28;1204;-59
2022/11/16 01:00:09;;;;;;;5.93;4.70;;;;;;;;;;510682;28;1202;-60
2022/11/16 01:00:25;;;;;;;5.50;4.70;;;;;;;;;;513722;28;1445;-59
2022/11/16 01:00:41;;;;;;;6.20;4.80;;;;;;;;;;513304;28;1187;-59
2022/11/16 01:01:03;;;;;;;6.63;4.63;;;;;;;;;;513344;28;1039;-59
2022/11/16 01:01:18;;;;;;;4.93;4.40;;;;;;;;;;512829;28;1035;-59
2022/11/16 01:01:33;;;;;;;6.93;4.50;;;;;;;;;;510889;28;1193;-59
2022/11/16 01:01:48;;;;;;;7.43;4.63;;;;;;;;;;510743;28;2177;-59
2022/11/16 01:02:04;;;;;;;8.17;4.53;;;;;;;;;;508441;28;1042;-59
2022/11/16 01:02:19;;;;;;;8.57;4.60;;;;;;;;;;510205;28;1410;-59
2022/11/16 01:02:34;;;;;;;6.83;4.70;;;;;;;;;;510891;28;1282;-59
2022/11/16 01:02:53;;;;;;;5.47;4.37;;;;;;;;;;508340;29;1206;-59
2022/11/16 01:03:08;;;;;;;5.22;4.10;;;;;;;;;;505395;29;1466;-60
2022/11/16 01:03:24;;;;;;;5.50;4.10;;;;;;;;;;507754;28;1143;-59
2022/11/16 01:03:40;;;;;;;5.10;4.30;;;;;;;;;;509335;28;1198;-59
2022/11/16 01:03:55;;;;;;;6.30;4.50;;;;;;;;;;509969;28;1379;-59
2022/11/16 01:04:10;;;;;;;6.90;4.60;;;;;;;;;;505389;29;1456;-59
2022/11/16 01:04:26;;;;;;;5.83;4.37;;;;;;;;;;505433;29;1498;-59
2022/11/16 01:04:41;;;;;;;4.87;4.20;;;;;;;;;;505368;29;1077;-59
2022/11/16 01:04:56;;;;;;;5.72;4.32;;;;;;;;;;507476;29;1068;-59
2022/11/16 01:05:12;;;;;;;6.37;4.40;;;;;;;;;;508820;28;1085;-59
2022/11/16 01:05:27;;;;;;;5.32;4.20;;;;;;;;;;509327;29;1541;-59
2022/11/16 01:05:42;;;;;;;5.67;4.20;;;;;;;;;;508193;28;1461;-59
2022/11/16 01:06:07;;;;;;;5.50;4.10;;;;;;;;;;511359;28;1092;-59
2022/11/16 01:06:22;;;;;;;5.50;3.75;;;;;;;;;;512850;28;1147;-59
2022/11/16 01:06:37;;;;;;;5.37;3.77;;;;;;;;;;515085;28;1071;-59
2022/11/16 01:06:53;;;;;;;5.27;3.70;;;;;;;;;;512054;28;1388;-59
2022/11/16 01:07:08;;;;;;;4.90;3.53;;;;;;;;;;510761;28;1129;-59
2022/11/16 01:07:23;;;;;;;5.00;3.60;;;;;;;;;;511066;28;1199;-59
2022/11/16 01:07:39;;;;;;;4.63;3.60;;;;;;;;;;509628;28;1413;-59
2022/11/16 01:07:56;;;;;;;4.50;3.70;;;;;;;;;;508361;29;1621;-59
2022/11/16 01:08:11;;;;;;;4.68;3.67;;;;;;;;;;507991;29;1006;-59
2022/11/16 01:08:26;;;;;;;4.43;3.67;;;;;;;;;;509214;29;1171;-60
2022/11/16 01:08:42;;;;;;;4.73;3.80;;;;;;;;;;509231;28;1144;-60
2022/11/16 01:08:59;;;;;;;5.07;3.72;;;;;;;;;;512507;28;1538;-60
2022/11/16 01:09:14;;;;;;;4.43;3.60;;;;;;;;;;511402;28;1284;-59
2022/11/16 01:09:29;;;;;;;5.37;3.90;;;;;;;;;;512734;28;1187;-59
2022/11/16 01:09:44;;;;;;;5.10;3.77;;;;;;;;;;513060;28;1246;-59
2022/11/16 01:10:00;;;;;;;4.77;3.50;;;;;;;;;;511871;28;1289;-59
2022/11/16 01:10:18;;;;;;;6.30;3.80;;;;;;;;;;511255;28;1264;-59
2022/11/16 01:10:34;;;;;;;6.10;3.80;;;;;;;;;;513589;28;1195;-59
2022/11/16 01:10:49;;;;;;;4.68;3.53;;;;;;;;;;512576;28;1549;-59
2022/11/16 01:12:13;;;;;;;4.32;3.65;;;;;;;;;;513495;28;1052;-59
2022/11/16 01:12:28;;;;;;;4.00;3.60;;;;;;;;;;515488;28;1930;-59
2022/11/16 01:12:45;;;;;;;4.37;3.60;;;;;;;;;;514978;28;1141;-59
2022/11/16 01:13:00;;;;;;;4.93;3.55;;;;;;;;;;512953;28;1006;-59
2022/11/16 01:13:15;;;;;;;4.07;3.00;;;;;;;;;;513001;28;1198;-59
2022/11/16 01:13:31;;;;;;;4.60;3.25;;;;;;;;;;513247;28;1174;-59
2022/11/16 01:13:46;;;;;;;5.90;3.50;;;;;;;;;;512876;28;1159;-60
2022/11/16 01:14:04;;;;;;;5.63;3.30;;;;;;;;;;509991;28;1868;-60
2022/11/16 01:14:19;;;;;;;4.78;3.40;;;;;;;;;;509644;28;1669;-60
2022/11/16 01:14:36;;;;;;;4.32;3.40;;;;;;;;;;509246;28;2059;-59
2022/11/16 01:14:51;;;;;;;4.47;3.30;;;;;;;;;;507801;29;1410;-59
2022/11/16 01:15:08;;;;;;;5.13;3.40;;;;;;;;;;508089;29;1101;-59
2022/11/16 01:15:26;;;;;;;5.03;3.50;;;;;;;;;;507513;29;1156;-60
2022/11/16 01:15:46;;;;;;;4.68;3.40;;;;;;;;;;508828;29;1129;-59
2022/11/16 01:16:01;;;;;;;4.80;3.23;;;;;;;;;;509449;28;1278;-59
2022/11/16 01:16:18;;;;;;;5.27;3.37;;;;;;;;;;510229;28;1104;-59
2022/11/16 01:16:35;;;;;;;4.78;3.40;;;;;;;;;;509892;28;1068;-60
2022/11/16 01:16:50;;;;;;;4.45;3.40;;;;;;;;;;512403;28;1183;-59
2022/11/16 01:17:06;;;;;;;4.33;3.30;;;;;;;;;;510129;28;1162;-60
2022/11/16 01:17:21;;;;;;;4.05;3.10;;;;;;;;;;510450;28;1096;-59
2022/11/16 01:17:38;;;;;;;4.13;3.20;;;;;;;;;;510456;28;1290;-59
2022/11/16 01:17:55;;;;;;;4.65;3.53;;;;;;;;;;510938;28;1084;-59
2022/11/16 01:18:10;;;;;;;5.13;3.55;;;;;;;;;;512324;28;1024;-59
2022/11/16 01:18:25;;;;;;;5.23;3.50;;;;;;;;;;512466;28;1060;-59
2022/11/16 01:18:42;;;;;;;4.50;3.47;;;;;;;;;;511274;28;1517;-60
2022/11/16 01:18:57;;;;;;;5.32;3.40;;;;;;;;;;511974;28;1195;-59
2022/11/16 01:19:13;;;;;;;6.70;3.53;;;;;;;;;;511892;28;1257;-59
2022/11/16 01:19:28;;;;;;;6.07;3.60;;;;;;;;;;511436;28;1186;-59
2022/11/16 01:19:43;;;;;;;4.75;3.40;;;;;;;;;;512743;28;1647;-60
2022/11/16 01:19:59;;;;;;;3.87;3.23;;;;;;;;;;513760;28;1261;-60
2022/11/16 01:20:17;;;;;;;3.80;3.30;;;;;;;;;;513739;28;1139;-59
2022/11/16 01:20:32;;;;;;;4.05;3.22;;;;;;;;;;512055;28;1260;-59
2022/11/16 01:20:47;;;;;;;3.87;3.13;;;;;;;;;;513513;28;1123;-60
2022/11/16 01:21:05;;;;;;;4.07;3.03;;;;;;;;;;513273;28;1148;-59
2022/11/16 01:21:21;;;;;;;3.97;3.10;;;;;;;;;;512835;28;1198;-59
2022/11/16 01:21:37;;;;;;;5.13;3.30;;;;;;;;;;514114;28;1580;-60
2022/11/16 01:21:52;;;;;;;4.83;3.10;;;;;;;;;;516096;28;1159;-60
2022/11/16 01:22:07;;;;;;;3.88;3.10;;;;;;;;;;515131;28;1079;-59
2022/11/16 01:22:23;;;;;;;4.67;3.20;;;;;;;;;;509949;28;1202;-59
2022/11/16 01:22:39;;;;;;;4.53;3.10;;;;;;;;;;508427;28;1183;-60
2022/11/16 01:22:54;;;;;;;4.38;3.05;;;;;;;;;;509737;28;1074;-59
2022/11/16 01:23:11;;;;;;;4.07;3.05;;;;;;;;;;510839;28;1462;-60
2022/11/16 01:23:26;;;;;;;3.30;2.97;;;;;;;;;;510611;28;1068;-60
2022/11/16 01:23:41;;;;;;;3.78;2.92;;;;;;;;;;510948;28;1156;-61
2022/11/16 01:23:57;;;;;;;4.50;2.90;;;;;;;;;;509739;28;1195;-58
2022/11/16 01:24:12;;;;;;;5.40;2.87;;;;;;;;;;511423;28;1585;-58
2022/11/16 01:24:27;;;;;;;5.45;2.90;;;;;;;;;;512747;28;1159;-58
2022/11/16 01:24:45;;;;;;;4.73;3.00;;;;;;;;;;511957;28;1072;-59
2022/11/16 01:25:00;;;;;;;4.63;3.10;;;;;;;;;;512245;28;1310;-59
2022/11/16 01:25:16;;;;;;;5.30;3.30;;;;;;;;;;515062;28;1380;-58
2022/11/16 01:25:31;;;;;;;5.22;3.30;;;;;;;;;;515038;28;988;-59
2022/11/16 01:25:55;;;;;;;4.40;3.20;;;;;;;;;;513924;28;1306;-58
2022/11/16 01:26:10;;;;;;;4.35;3.22;;;;;;;;;;515121;28;1111;-58
2022/11/16 01:26:26;;;;;;;4.33;3.20;;;;;;;;;;513787;28;1107;-58
2022/11/16 01:26:41;;;;;;;4.45;3.20;;;;;;;;;;514506;28;1300;-58
2022/11/16 01:26:57;;;;;;;3.97;3.20;;;;;;;;;;515037;28;1096;-58
2022/11/16 01:27:13;;;;;;;3.83;3.10;;;;;;;;;;514128;28;1092;-58
2022/11/16 01:27:28;;;;;;;4.80;3.20;;;;;;;;;;511502;28;1184;-59
2022/11/16 01:27:43;;;;;;;5.25;3.50;;;;;;;;;;513702;28;1138;-59
2022/11/16 01:27:58;;;;;;;4.77;3.50;;;;;;;;;;512692;28;1154;-58
2022/11/16 01:28:14;;;;;;;4.73;3.30;;;;;;;;;;512099;28;1173;-59
2022/11/16 01:28:30;;;;;;;5.00;3.50;;;;;;;;;;512779;28;1322;-59
2022/11/16 01:28:45;;;;;;;4.10;3.38;;;;;;;;;;511801;28;964;-59
2022/11/16 01:29:00;;;;;;;3.53;3.13;;;;;;;;;;513272;28;1166;-59
2022/11/16 01:29:16;;;;;;;4.07;3.27;;;;;;;;;;512965;28;1191;-59
2022/11/16 01:29:31;;;;;;;4.35;3.38;;;;;;;;;;513566;28;1102;-59
2022/11/16 01:29:47;;;;;;;4.87;3.67;;;;;;;;;;511563;28;1414;-59
2022/11/16 01:30:03;;;;;;;5.15;3.50;;;;;;;;;;513500;28;973;-58
2022/11/16 01:30:19;;;;;;;4.80;3.20;;;;;;;;;;510796;28;1832;-58
2022/11/16 01:30:34;;;;;;;4.00;3.13;;;;;;;;;;511128;28;1193;-59
2022/11/16 01:30:49;;;;;;;4.10;3.13;;;;;;;;;;509295;28;1339;-59
2022/11/16 01:31:05;;;;;;;5.60;3.37;;;;;;;;;;510633;28;1292;-58
2022/11/16 01:31:20;;;;;;;5.13;3.15;;;;;;;;;;510760;28;1092;-58
2022/11/16 01:31:35;;;;;;;4.13;2.93;;;;;;;;;;511971;28;1167;-58
2022/11/16 01:31:51;;;;;;;4.73;3.03;;;;;;;;;;512025;28;1297;-59
2022/11/16 01:32:06;;;;;;;4.80;3.20;;;;;;;;;;512386;28;1389;-61
2022/11/16 01:32:22;;;;;;;4.50;3.33;;;;;;;;;;512703;28;1142;-59
2022/11/16 01:32:37;;;;;;;5.40;3.72;;;;;;;;;;512528;28;1958;-58
2022/11/16 01:32:53;;;;;;;6.10;3.80;;;;;;;;;;512656;28;1159;-58
2022/11/16 01:33:08;;;;;;;4.97;3.50;;;;;;;;;;512274;28;1528;-58
2022/11/16 01:33:23;;;;;;;4.20;3.50;;;;;;;;;;513346;28;1198;-59
2022/11/16 01:33:39;;;;;;;3.90;3.30;;;;;;;;;;512723;28;1227;-58
2022/11/16 01:33:54;;;;;;;4.22;3.30;;;;;;;;;;511565;28;1384;-58
2022/11/16 01:34:09;;;;;;;5.17;3.40;;;;;;;;;;510326;28;1124;-59
2022/11/16 01:34:25;;;;;;;5.60;3.60;;;;;;;;;;511305;28;1494;-58
2022/11/16 01:34:40;;;;;;;4.88;3.78;;;;;;;;;;511949;28;1310;-58
2022/11/16 01:34:55;;;;;;;4.87;3.90;;;;;;;;;;511602;28;1393;-58
2022/11/16 01:35:15;;;;;;;6.43;3.90;;;;;;;;;;512672;28;1132;-58
2022/11/16 01:35:30;;;;;;;5.63;3.60;;;;;;;;;;512536;28;1148;-58
2022/11/16 01:35:45;;;;;;;5.63;3.57;;;;;;;;;;512321;28;1175;-58
2022/11/16 01:36:01;;;;;;;7.45;4.00;;;;;;;;;;515531;28;1071;-58
2022/11/16 01:36:16;;;;;;;8.43;4.40;;;;;;;;;;514229;28;1256;-58
2022/11/16 01:36:32;;;;;;;6.67;4.20;;;;;;;;;;515489;28;1099;-58
2022/11/16 01:36:47;;;;;;;4.70;3.75;;;;;;;;;;515028;28;1025;-58
2022/11/16 01:37:02;;;;;;;4.53;3.50;;;;;;;;;;512634;28;1857;-58
2022/11/16 01:37:18;;;;;;;5.53;3.75;;;;;;;;;;512808;28;1318;-58
2022/11/16 01:37:33;;;;;;;8.93;4.40;;;;;;;;;;515091;28;1242;-58
2022/11/16 01:37:49;;;;;;;8.55;4.40;;;;;;;;;;515141;28;1143;-58
2022/11/16 01:38:04;;;;;;;5.83;4.10;;;;;;;;;;515165;28;1099;-58
2022/11/16 01:38:20;;;;;;;5.73;4.07;;;;;;;;;;511229;28;1200;-58
2022/11/16 01:38:35;;;;;;;6.25;4.00;;;;;;;;;;511839;28;1313;-58
2022/11/16 01:38:50;;;;;;;5.27;4.00;;;;;;;;;;513181;28;1366;-57
2022/11/16 01:39:06;;;;;;;5.07;3.63;;;;;;;;;;512649;28;2120;-58
2022/11/16 01:39:21;;;;;;;5.17;3.50;;;;;;;;;;513115;28;1021;-58